sensor_id;sensor_type;location;lat;lon;timestamp;temperature;humidity
55213;DHT22;41083;52.932;6.674;2024-03-25T00:00:17;5.90;99.90
55213;DHT22;41083;52.932;6.674;2024-03-25T00:02:43;5.90;99.90
55213;DHT22;41083;52.932;6.674;2024-03-25T00:05:09;5.80;99.90
55213;DHT22;41083;52.932;6.674;2024-03-25T00:07:38;5.80;99.90
55213;DHT22;41083;52.932;6.674;2024-03-25T00:10:04;5.80;99.90
55213;DHT22;41083;52.932;6.674;2024-03-25T00:12:34;5.80;99.90
55213;DHT22;41083;52.932;6.674;2024-03-25T00:15:00;5.80;99.90
55213;DHT22;41083;52.932;6.674;2024-03-25T00:17:25;5.90;99.90
55213;DHT22;41083;52.932;6.674;2024-03-25T00:19:51;5.90;99.90
55213;DHT22;41083;52.932;6.674;2024-03-25T00:22:18;5.90;99.90
55213;DHT22;41083;52.932;6.674;2024-03-25T00:24:45;5.90;99.90
55213;DHT22;41083;52.932;6.674;2024-03-25T00:27:12;5.90;99.90
55213;DHT22;41083;52.932;6.674;2024-03-25T00:29:37;5.90;99.90
55213;DHT22;41083;52.932;6.674;2024-03-25T00:32:04;5.90;99.90
55213;DHT22;41083;52.932;6.674;2024-03-25T00:34:30;5.90;99.90
55213;DHT22;41083;52.932;6.674;2024-03-25T00:36:55;5.90;99.90
55213;DHT22;41083;52.932;6.674;2024-03-25T00:39:21;5.80;99.90
55213;DHT22;41083;52.932;6.674;2024-03-25T00:41:47;5.80;99.90
55213;DHT22;41083;52.932;6.674;2024-03-25T00:44:13;5.80;99.90
55213;DHT22;41083;52.932;6.674;2024-03-25T00:46:38;5.80;99.90
55213;DHT22;41083;52.932;6.674;2024-03-25T00:49:05;5.70;99.90
55213;DHT22;41083;52.932;6.674;2024-03-25T00:51:31;5.70;99.90
55213;DHT22;41083;52.932;6.674;2024-03-25T00:53:57;5.70;99.90
55213;DHT22;41083;52.932;6.674;2024-03-25T00:56:22;5.60;99.90
55213;DHT22;41083;52.932;6.674;2024-03-25T00:58:48;5.60;99.90
55213;DHT22;41083;52.932;6.674;2024-03-25T01:01:14;5.60;99.90
55213;DHT22;41083;52.932;6.674;2024-03-25T01:03:39;5.60;99.90
55213;DHT22;41083;52.932;6.674;2024-03-25T01:06:05;5.60;99.90
55213;DHT22;41083;52.932;6.674;2024-03-25T01:08:31;5.50;99.90
55213;DHT22;41083;52.932;6.674;2024-03-25T01:10:56;5.50;99.90
55213;DHT22;41083;52.932;6.674;2024-03-25T01:13:22;5.50;99.90
55213;DHT22;41083;52.932;6.674;2024-03-25T01:15:47;5.50;99.90
55213;DHT22;41083;52.932;6.674;2024-03-25T01:18:13;5.50;99.90
55213;DHT22;41083;52.932;6.674;2024-03-25T01:20:39;5.50;99.90
55213;DHT22;41083;52.932;6.674;2024-03-25T01:23:04;5.40;99.90
55213;DHT22;41083;52.932;6.674;2024-03-25T01:25:30;5.40;99.90
55213;DHT22;41083;52.932;6.674;2024-03-25T01:27:56;5.40;99.90
55213;DHT22;41083;52.932;6.674;2024-03-25T01:30:22;5.40;99.90
55213;DHT22;41083;52.932;6.674;2024-03-25T01:32:48;5.40;99.90
55213;DHT22;41083;52.932;6.674;2024-03-25T01:35:14;5.40;99.90
55213;DHT22;41083;52.932;6.674;2024-03-25T01:37:41;5.40;99.90
55213;DHT22;41083;52.932;6.674;2024-03-25T01:40:07;5.40;99.90
55213;DHT22;41083;52.932;6.674;2024-03-25T01:42:35;5.40;99.90
55213;DHT22;41083;52.932;6.674;2024-03-25T01:45:01;5.40;99.90
55213;DHT22;41083;52.932;6.674;2024-03-25T01:47:29;5.50;99.90
55213;DHT22;41083;52.932;6.674;2024-03-25T01:49:57;5.40;99.90
55213;DHT22;41083;52.932;6.674;2024-03-25T01:52:23;5.50;99.90
55213;DHT22;41083;52.932;6.674;2024-03-25T01:54:50;5.40;99.90
55213;DHT22;41083;52.932;6.674;2024-03-25T01:57:16;5.40;99.90
55213;DHT22;41083;52.932;6.674;2024-03-25T01:59:42;5.40;99.90
55213;DHT22;41083;52.932;6.674;2024-03-25T02:02:09;5.40;99.90
55213;DHT22;41083;52.932;6.674;2024-03-25T02:04:37;5.40;99.90
55213;DHT22;41083;52.932;6.674;2024-03-25T02:07:04;5.40;99.90
55213;DHT22;41083;52.932;6.674;2024-03-25T02:09:31;5.50;99.90
55213;DHT22;41083;52.932;6.674;2024-03-25T02:11:57;5.50;99.90
55213;DHT22;41083;52.932;6.674;2024-03-25T02:14:23;5.50;99.90
55213;DHT22;41083;52.932;6.674;2024-03-25T02:16:49;5.50;99.90
55213;DHT22;41083;52.932;6.674;2024-03-25T02:19:15;5.50;99.90
55213;DHT22;41083;52.932;6.674;2024-03-25T02:21:42;5.50;99.90
55213;DHT22;41083;52.932;6.674;2024-03-25T02:24:10;5.50;99.90
55213;DHT22;41083;52.932;6.674;2024-03-25T02:26:37;5.60;99.90
55213;DHT22;41083;52.932;6.674;2024-03-25T02:29:02;5.60;99.90
55213;DHT22;41083;52.932;6.674;2024-03-25T02:31:28;5.60;99.90
55213;DHT22;41083;52.932;6.674;2024-03-25T02:33:53;5.60;99.90
55213;DHT22;41083;52.932;6.674;2024-03-25T02:36:19;5.60;99.90
55213;DHT22;41083;52.932;6.674;2024-03-25T02:38:45;5.60;99.90
55213;DHT22;41083;52.932;6.674;2024-03-25T02:41:10;5.60;99.90
55213;DHT22;41083;52.932;6.674;2024-03-25T02:43:36;5.60;99.90
55213;DHT22;41083;52.932;6.674;2024-03-25T02:46:02;5.60;99.90
55213;DHT22;41083;52.932;6.674;2024-03-25T02:48:28;5.60;99.90
55213;DHT22;41083;52.932;6.674;2024-03-25T02:50:53;5.60;99.90
55213;DHT22;41083;52.932;6.674;2024-03-25T02:53:19;5.60;99.90
55213;DHT22;41083;52.932;6.674;2024-03-25T02:55:45;5.60;99.90
55213;DHT22;41083;52.932;6.674;2024-03-25T02:58:10;5.60;99.90
55213;DHT22;41083;52.932;6.674;2024-03-25T03:00:36;5.60;99.90
55213;DHT22;41083;52.932;6.674;2024-03-25T03:03:01;5.60;99.90
55213;DHT22;41083;52.932;6.674;2024-03-25T03:05:27;5.60;99.90
55213;DHT22;41083;52.932;6.674;2024-03-25T03:07:53;5.60;99.90
55213;DHT22;41083;52.932;6.674;2024-03-25T03:10:19;5.60;99.90
55213;DHT22;41083;52.932;6.674;2024-03-25T03:12:44;5.60;99.90
55213;DHT22;41083;52.932;6.674;2024-03-25T03:15:10;5.60;99.90
55213;DHT22;41083;52.932;6.674;2024-03-25T03:17:36;5.60;99.90
55213;DHT22;41083;52.932;6.674;2024-03-25T03:20:02;5.60;99.90
55213;DHT22;41083;52.932;6.674;2024-03-25T03:22:27;5.60;99.90
55213;DHT22;41083;52.932;6.674;2024-03-25T03:24:53;5.60;99.90
55213;DHT22;41083;52.932;6.674;2024-03-25T03:27:19;5.60;99.90
55213;DHT22;41083;52.932;6.674;2024-03-25T03:29:45;5.60;99.90
55213;DHT22;41083;52.932;6.674;2024-03-25T03:32:10;5.60;99.90
55213;DHT22;41083;52.932;6.674;2024-03-25T03:34:36;5.60;99.90
55213;DHT22;41083;52.932;6.674;2024-03-25T03:37:01;5.60;99.90
55213;DHT22;41083;52.932;6.674;2024-03-25T03:39:27;5.60;99.90
55213;DHT22;41083;52.932;6.674;2024-03-25T03:41:52;5.70;99.90
55213;DHT22;41083;52.932;6.674;2024-03-25T03:44:18;5.60;99.90
55213;DHT22;41083;52.932;6.674;2024-03-25T03:46:44;5.70;99.90
55213;DHT22;41083;52.932;6.674;2024-03-25T03:49:09;5.60;99.90
55213;DHT22;41083;52.932;6.674;2024-03-25T03:51:35;5.60;99.90
55213;DHT22;41083;52.932;6.674;2024-03-25T03:54:00;5.60;99.90
55213;DHT22;41083;52.932;6.674;2024-03-25T03:56:26;5.60;99.90
55213;DHT22;41083;52.932;6.674;2024-03-25T03:58:52;5.60;99.90
55213;DHT22;41083;52.932;6.674;2024-03-25T04:01:18;5.60;99.90
55213;DHT22;41083;52.932;6.674;2024-03-25T04:03:44;5.50;99.90
55213;DHT22;41083;52.932;6.674;2024-03-25T04:06:11;5.50;99.90
55213;DHT22;41083;52.932;6.674;2024-03-25T04:08:38;5.50;99.90
55213;DHT22;41083;52.932;6.674;2024-03-25T04:11:04;5.50;99.90
55213;DHT22;41083;52.932;6.674;2024-03-25T04:13:34;5.50;99.90
55213;DHT22;41083;52.932;6.674;2024-03-25T04:16:04;5.50;99.90
55213;DHT22;41083;52.932;6.674;2024-03-25T04:18:31;5.50;99.90
55213;DHT22;41083;52.932;6.674;2024-03-25T04:20:57;5.50;99.90
55213;DHT22;41083;52.932;6.674;2024-03-25T04:23:24;5.50;99.90
55213;DHT22;41083;52.932;6.674;2024-03-25T04:25:50;5.50;99.90
55213;DHT22;41083;52.932;6.674;2024-03-25T04:28:16;5.50;99.90
55213;DHT22;41083;52.932;6.674;2024-03-25T04:30:41;5.50;99.90
55213;DHT22;41083;52.932;6.674;2024-03-25T04:33:07;5.40;99.90
55213;DHT22;41083;52.932;6.674;2024-03-25T04:35:34;5.50;99.90
55213;DHT22;41083;52.932;6.674;2024-03-25T04:37:59;5.40;99.90
55213;DHT22;41083;52.932;6.674;2024-03-25T04:40:25;5.50;99.90
55213;DHT22;41083;52.932;6.674;2024-03-25T04:42:51;5.50;99.90
55213;DHT22;41083;52.932;6.674;2024-03-25T04:45:16;5.50;99.90
55213;DHT22;41083;52.932;6.674;2024-03-25T04:47:42;5.50;99.90
55213;DHT22;41083;52.932;6.674;2024-03-25T04:50:08;5.50;99.90
55213;DHT22;41083;52.932;6.674;2024-03-25T04:52:34;5.40;99.90
55213;DHT22;41083;52.932;6.674;2024-03-25T04:55:00;5.50;99.90
55213;DHT22;41083;52.932;6.674;2024-03-25T04:57:26;5.50;99.90
55213;DHT22;41083;52.932;6.674;2024-03-25T04:59:51;5.50;99.90
55213;DHT22;41083;52.932;6.674;2024-03-25T05:02:17;5.50;99.90
55213;DHT22;41083;52.932;6.674;2024-03-25T05:04:42;5.50;99.90
55213;DHT22;41083;52.932;6.674;2024-03-25T05:07:08;5.50;99.90
55213;DHT22;41083;52.932;6.674;2024-03-25T05:09:34;5.50;99.90
55213;DHT22;41083;52.932;6.674;2024-03-25T05:12:00;5.50;99.90
55213;DHT22;41083;52.932;6.674;2024-03-25T05:14:25;5.50;99.90
55213;DHT22;41083;52.932;6.674;2024-03-25T05:16:51;5.50;99.90
55213;DHT22;41083;52.932;6.674;2024-03-25T05:19:18;5.40;99.90
55213;DHT22;41083;52.932;6.674;2024-03-25T05:21:44;5.40;99.90
55213;DHT22;41083;52.932;6.674;2024-03-25T05:24:10;5.40;99.90
55213;DHT22;41083;52.932;6.674;2024-03-25T05:26:36;5.30;99.90
55213;DHT22;41083;52.932;6.674;2024-03-25T05:29:02;5.30;99.90
55213;DHT22;41083;52.932;6.674;2024-03-25T05:31:28;5.20;99.90
55213;DHT22;41083;52.932;6.674;2024-03-25T05:33:53;5.20;99.90
55213;DHT22;41083;52.932;6.674;2024-03-25T05:36:19;5.20;99.90
55213;DHT22;41083;52.932;6.674;2024-03-25T05:38:45;5.20;99.90
55213;DHT22;41083;52.932;6.674;2024-03-25T05:41:11;5.20;99.90
55213;DHT22;41083;52.932;6.674;2024-03-25T05:43:37;5.10;99.90
55213;DHT22;41083;52.932;6.674;2024-03-25T05:46:03;5.20;99.90
55213;DHT22;41083;52.932;6.674;2024-03-25T05:48:29;5.20;99.90
55213;DHT22;41083;52.932;6.674;2024-03-25T05:51:06;5.20;99.90
55213;DHT22;41083;52.932;6.674;2024-03-25T05:53:33;5.20;99.90
55213;DHT22;41083;52.932;6.674;2024-03-25T05:55:58;5.20;99.90
55213;DHT22;41083;52.932;6.674;2024-03-25T05:58:27;5.20;99.90
55213;DHT22;41083;52.932;6.674;2024-03-25T06:00:53;5.20;99.90
55213;DHT22;41083;52.932;6.674;2024-03-25T06:03:19;5.30;99.90
55213;DHT22;41083;52.932;6.674;2024-03-25T06:05:45;5.30;99.90
55213;DHT22;41083;52.932;6.674;2024-03-25T06:08:11;5.30;99.90
55213;DHT22;41083;52.932;6.674;2024-03-25T06:11:01;5.40;99.90
55213;DHT22;41083;52.932;6.674;2024-03-25T06:13:27;5.40;99.90
55213;DHT22;41083;52.932;6.674;2024-03-25T06:15:52;5.40;99.90
55213;DHT22;41083;52.932;6.674;2024-03-25T06:18:18;5.30;99.90
55213;DHT22;41083;52.932;6.674;2024-03-25T06:20:44;5.30;99.90
55213;DHT22;41083;52.932;6.674;2024-03-25T06:23:09;5.30;99.90
55213;DHT22;41083;52.932;6.674;2024-03-25T06:25:35;5.40;99.90
55213;DHT22;41083;52.932;6.674;2024-03-25T06:28:03;5.40;99.90
55213;DHT22;41083;52.932;6.674;2024-03-25T06:30:29;5.40;99.90
55213;DHT22;41083;52.932;6.674;2024-03-25T06:33:13;5.40;99.90
55213;DHT22;41083;52.932;6.674;2024-03-25T06:35:57;5.40;99.90
55213;DHT22;41083;52.932;6.674;2024-03-25T06:38:23;5.50;99.90
55213;DHT22;41083;52.932;6.674;2024-03-25T06:40:49;5.40;99.90
55213;DHT22;41083;52.932;6.674;2024-03-25T06:43:16;5.50;99.90
55213;DHT22;41083;52.932;6.674;2024-03-25T06:45:44;5.50;99.90
55213;DHT22;41083;52.932;6.674;2024-03-25T06:48:09;5.60;99.90
55213;DHT22;41083;52.932;6.674;2024-03-25T06:50:35;5.60;99.90
55213;DHT22;41083;52.932;6.674;2024-03-25T06:53:02;5.60;99.90
55213;DHT22;41083;52.932;6.674;2024-03-25T06:55:27;5.60;99.90
55213;DHT22;41083;52.932;6.674;2024-03-25T06:57:54;5.60;99.90
55213;DHT22;41083;52.932;6.674;2024-03-25T07:00:20;5.60;99.90
55213;DHT22;41083;52.932;6.674;2024-03-25T07:02:50;5.70;99.90
55213;DHT22;41083;52.932;6.674;2024-03-25T07:05:16;5.70;99.90
55213;DHT22;41083;52.932;6.674;2024-03-25T07:07:42;5.70;99.90
55213;DHT22;41083;52.932;6.674;2024-03-25T07:10:07;5.70;99.90
55213;DHT22;41083;52.932;6.674;2024-03-25T07:12:33;5.70;99.90
55213;DHT22;41083;52.932;6.674;2024-03-25T07:14:59;5.70;99.90
55213;DHT22;41083;52.932;6.674;2024-03-25T07:17:25;5.70;99.90
55213;DHT22;41083;52.932;6.674;2024-03-25T07:19:51;5.70;99.90
55213;DHT22;41083;52.932;6.674;2024-03-25T07:22:17;5.70;99.90
55213;DHT22;41083;52.932;6.674;2024-03-25T07:24:43;5.70;99.90
55213;DHT22;41083;52.932;6.674;2024-03-25T07:27:08;5.80;99.90
55213;DHT22;41083;52.932;6.674;2024-03-25T07:29:35;5.80;99.90
55213;DHT22;41083;52.932;6.674;2024-03-25T07:32:00;5.80;99.90
55213;DHT22;41083;52.932;6.674;2024-03-25T07:34:26;5.90;99.90
55213;DHT22;41083;52.932;6.674;2024-03-25T07:36:52;5.90;99.90
55213;DHT22;41083;52.932;6.674;2024-03-25T07:39:17;6.00;99.90
55213;DHT22;41083;52.932;6.674;2024-03-25T07:41:43;6.00;99.90
55213;DHT22;41083;52.932;6.674;2024-03-25T07:44:09;6.00;99.90
55213;DHT22;41083;52.932;6.674;2024-03-25T07:46:34;6.10;99.90
55213;DHT22;41083;52.932;6.674;2024-03-25T07:49:00;6.10;99.90
55213;DHT22;41083;52.932;6.674;2024-03-25T07:51:25;6.10;99.90
55213;DHT22;41083;52.932;6.674;2024-03-25T07:53:51;6.20;99.90
55213;DHT22;41083;52.932;6.674;2024-03-25T07:56:17;6.30;99.90
55213;DHT22;41083;52.932;6.674;2024-03-25T07:58:42;6.30;99.90
55213;DHT22;41083;52.932;6.674;2024-03-25T08:01:08;6.30;99.90
55213;DHT22;41083;52.932;6.674;2024-03-25T08:03:34;6.40;99.90
55213;DHT22;41083;52.932;6.674;2024-03-25T08:06:00;6.40;99.90
55213;DHT22;41083;52.932;6.674;2024-03-25T08:08:25;6.60;99.90
55213;DHT22;41083;52.932;6.674;2024-03-25T08:10:51;6.60;99.90
55213;DHT22;41083;52.932;6.674;2024-03-25T08:13:18;6.70;99.90
55213;DHT22;41083;52.932;6.674;2024-03-25T08:15:45;6.80;99.90
55213;DHT22;41083;52.932;6.674;2024-03-25T08:18:11;6.90;99.90
55213;DHT22;41083;52.932;6.674;2024-03-25T08:20:37;6.90;99.90
55213;DHT22;41083;52.932;6.674;2024-03-25T08:23:03;6.90;99.90
55213;DHT22;41083;52.932;6.674;2024-03-25T08:25:28;6.90;99.90
55213;DHT22;41083;52.932;6.674;2024-03-25T08:27:54;6.90;99.90
55213;DHT22;41083;52.932;6.674;2024-03-25T08:30:20;6.90;99.90
55213;DHT22;41083;52.932;6.674;2024-03-25T08:32:45;6.90;99.90
55213;DHT22;41083;52.932;6.674;2024-03-25T08:35:11;6.90;99.90
55213;DHT22;41083;52.932;6.674;2024-03-25T08:37:36;6.90;99.90
55213;DHT22;41083;52.932;6.674;2024-03-25T08:40:02;6.90;99.90
55213;DHT22;41083;52.932;6.674;2024-03-25T08:42:29;6.90;99.90
55213;DHT22;41083;52.932;6.674;2024-03-25T08:44:55;7.00;99.90
55213;DHT22;41083;52.932;6.674;2024-03-25T08:47:20;6.90;99.90
55213;DHT22;41083;52.932;6.674;2024-03-25T08:49:46;7.00;99.90
55213;DHT22;41083;52.932;6.674;2024-03-25T08:52:12;7.00;99.90
55213;DHT22;41083;52.932;6.674;2024-03-25T08:54:38;7.10;99.90
55213;DHT22;41083;52.932;6.674;2024-03-25T08:57:04;7.10;99.90
55213;DHT22;41083;52.932;6.674;2024-03-25T08:59:30;7.20;99.90
55213;DHT22;41083;52.932;6.674;2024-03-25T09:01:55;7.20;99.90
55213;DHT22;41083;52.932;6.674;2024-03-25T09:04:21;7.20;99.90
55213;DHT22;41083;52.932;6.674;2024-03-25T09:06:46;7.20;99.90
55213;DHT22;41083;52.932;6.674;2024-03-25T09:09:13;7.20;99.90
55213;DHT22;41083;52.932;6.674;2024-03-25T09:11:57;7.30;99.90
55213;DHT22;41083;52.932;6.674;2024-03-25T09:14:23;7.30;99.90
55213;DHT22;41083;52.932;6.674;2024-03-25T09:16:48;7.40;99.90
55213;DHT22;41083;52.932;6.674;2024-03-25T09:19:14;7.40;99.90
55213;DHT22;41083;52.932;6.674;2024-03-25T09:21:39;7.40;99.90
55213;DHT22;41083;52.932;6.674;2024-03-25T09:24:06;7.40;99.90
55213;DHT22;41083;52.932;6.674;2024-03-25T09:26:31;7.40;99.90
55213;DHT22;41083;52.932;6.674;2024-03-25T09:28:57;7.40;99.90
55213;DHT22;41083;52.932;6.674;2024-03-25T09:31:23;7.40;99.90
55213;DHT22;41083;52.932;6.674;2024-03-25T09:33:48;7.30;99.90
55213;DHT22;41083;52.932;6.674;2024-03-25T09:36:14;7.40;99.90
55213;DHT22;41083;52.932;6.674;2024-03-25T09:38:40;7.40;99.90
55213;DHT22;41083;52.932;6.674;2024-03-25T09:41:08;7.40;99.90
55213;DHT22;41083;52.932;6.674;2024-03-25T09:43:43;7.50;99.90
55213;DHT22;41083;52.932;6.674;2024-03-25T09:46:11;7.50;99.90
55213;DHT22;41083;52.932;6.674;2024-03-25T09:48:37;7.50;99.90
55213;DHT22;41083;52.932;6.674;2024-03-25T09:51:04;7.40;99.90
55213;DHT22;41083;52.932;6.674;2024-03-25T09:53:30;7.40;99.90
55213;DHT22;41083;52.932;6.674;2024-03-25T09:55:57;7.40;99.90
55213;DHT22;41083;52.932;6.674;2024-03-25T09:58:24;7.40;99.90
55213;DHT22;41083;52.932;6.674;2024-03-25T10:00:50;7.40;99.90
55213;DHT22;41083;52.932;6.674;2024-03-25T10:03:16;7.50;99.90
55213;DHT22;41083;52.932;6.674;2024-03-25T10:05:43;7.50;99.90
55213;DHT22;41083;52.932;6.674;2024-03-25T10:08:08;7.60;99.90
55213;DHT22;41083;52.932;6.674;2024-03-25T10:10:35;7.70;99.90
55213;DHT22;41083;52.932;6.674;2024-03-25T10:13:03;7.70;99.90
55213;DHT22;41083;52.932;6.674;2024-03-25T10:15:29;7.80;99.90
55213;DHT22;41083;52.932;6.674;2024-03-25T10:17:55;7.80;99.90
55213;DHT22;41083;52.932;6.674;2024-03-25T10:20:20;7.80;99.90
55213;DHT22;41083;52.932;6.674;2024-03-25T10:22:48;7.90;99.90
55213;DHT22;41083;52.932;6.674;2024-03-25T10:25:28;7.90;99.90
55213;DHT22;41083;52.932;6.674;2024-03-25T10:28:03;7.90;99.90
55213;DHT22;41083;52.932;6.674;2024-03-25T10:30:29;7.80;99.90
55213;DHT22;41083;52.932;6.674;2024-03-25T10:33:05;7.80;99.90
55213;DHT22;41083;52.932;6.674;2024-03-25T10:35:33;7.80;99.90
55213;DHT22;41083;52.932;6.674;2024-03-25T10:38:00;7.80;99.90
55213;DHT22;41083;52.932;6.674;2024-03-25T10:40:30;7.70;99.90
55213;DHT22;41083;52.932;6.674;2024-03-25T10:43:10;7.70;99.90
55213;DHT22;41083;52.932;6.674;2024-03-25T10:45:45;7.70;99.90
55213;DHT22;41083;52.932;6.674;2024-03-25T10:48:27;7.70;99.90
55213;DHT22;41083;52.932;6.674;2024-03-25T10:50:55;7.80;99.90
55213;DHT22;41083;52.932;6.674;2024-03-25T10:53:22;7.80;99.90
55213;DHT22;41083;52.932;6.674;2024-03-25T10:55:55;7.90;99.90
55213;DHT22;41083;52.932;6.674;2024-03-25T10:58:22;7.90;99.90
55213;DHT22;41083;52.932;6.674;2024-03-25T11:00:49;8.00;99.90
55213;DHT22;41083;52.932;6.674;2024-03-25T11:03:15;8.10;99.90
55213;DHT22;41083;52.932;6.674;2024-03-25T11:05:41;8.20;99.90
55213;DHT22;41083;52.932;6.674;2024-03-25T11:08:14;8.30;99.90
55213;DHT22;41083;52.932;6.674;2024-03-25T11:10:44;8.30;99.90
55213;DHT22;41083;52.932;6.674;2024-03-25T11:13:11;8.30;99.90
55213;DHT22;41083;52.932;6.674;2024-03-25T11:15:40;8.40;99.90
55213;DHT22;41083;52.932;6.674;2024-03-25T11:18:11;8.50;99.90
55213;DHT22;41083;52.932;6.674;2024-03-25T11:20:37;8.50;99.90
55213;DHT22;41083;52.932;6.674;2024-03-25T11:23:14;8.50;99.90
55213;DHT22;41083;52.932;6.674;2024-03-25T11:25:41;8.60;99.90
55213;DHT22;41083;52.932;6.674;2024-03-25T11:28:08;8.70;99.90
55213;DHT22;41083;52.932;6.674;2024-03-25T11:30:36;8.70;99.90
55213;DHT22;41083;52.932;6.674;2024-03-25T11:33:02;8.70;99.90
55213;DHT22;41083;52.932;6.674;2024-03-25T11:35:37;8.80;99.90
55213;DHT22;41083;52.932;6.674;2024-03-25T11:38:02;8.80;99.90
55213;DHT22;41083;52.932;6.674;2024-03-25T11:40:28;8.80;99.90
55213;DHT22;41083;52.932;6.674;2024-03-25T11:42:54;8.80;99.90
55213;DHT22;41083;52.932;6.674;2024-03-25T11:45:20;8.80;99.90
55213;DHT22;41083;52.932;6.674;2024-03-25T11:47:48;8.90;99.90
55213;DHT22;41083;52.932;6.674;2024-03-25T11:50:18;9.00;99.90
55213;DHT22;41083;52.932;6.674;2024-03-25T11:52:45;9.00;99.90
55213;DHT22;41083;52.932;6.674;2024-03-25T11:55:10;9.10;99.90
55213;DHT22;41083;52.932;6.674;2024-03-25T11:57:40;9.10;99.90
55213;DHT22;41083;52.932;6.674;2024-03-25T12:00:07;9.10;99.90
55213;DHT22;41083;52.932;6.674;2024-03-25T12:02:36;9.00;99.90
55213;DHT22;41083;52.932;6.674;2024-03-25T12:05:05;9.00;99.90
55213;DHT22;41083;52.932;6.674;2024-03-25T12:07:31;8.90;99.90
55213;DHT22;41083;52.932;6.674;2024-03-25T12:09:58;8.90;99.90
55213;DHT22;41083;52.932;6.674;2024-03-25T12:12:42;8.80;99.90
55213;DHT22;41083;52.932;6.674;2024-03-25T12:15:09;8.80;99.90
55213;DHT22;41083;52.932;6.674;2024-03-25T12:17:35;8.70;99.90
55213;DHT22;41083;52.932;6.674;2024-03-25T12:20:08;8.70;99.90
55213;DHT22;41083;52.932;6.674;2024-03-25T12:22:35;8.60;99.90
55213;DHT22;41083;52.932;6.674;2024-03-25T12:25:02;8.60;99.90
55213;DHT22;41083;52.932;6.674;2024-03-25T12:27:29;8.50;99.90
55213;DHT22;41083;52.932;6.674;2024-03-25T12:30:08;8.50;99.90
55213;DHT22;41083;52.932;6.674;2024-03-25T12:32:37;8.50;99.90
55213;DHT22;41083;52.932;6.674;2024-03-25T12:35:10;8.50;99.90
55213;DHT22;41083;52.932;6.674;2024-03-25T12:37:43;8.50;99.90
55213;DHT22;41083;52.932;6.674;2024-03-25T12:40:10;8.50;99.90
55213;DHT22;41083;52.932;6.674;2024-03-25T12:42:37;8.50;99.90
55213;DHT22;41083;52.932;6.674;2024-03-25T12:45:04;8.50;99.90
55213;DHT22;41083;52.932;6.674;2024-03-25T12:47:31;8.50;99.90
55213;DHT22;41083;52.932;6.674;2024-03-25T12:49:57;8.50;99.90
55213;DHT22;41083;52.932;6.674;2024-03-25T12:52:23;8.60;99.90
55213;DHT22;41083;52.932;6.674;2024-03-25T12:54:49;8.60;99.90
55213;DHT22;41083;52.932;6.674;2024-03-25T12:57:15;8.70;99.90
55213;DHT22;41083;52.932;6.674;2024-03-25T12:59:40;8.80;99.90
55213;DHT22;41083;52.932;6.674;2024-03-25T13:02:10;8.80;99.90
55213;DHT22;41083;52.932;6.674;2024-03-25T13:04:36;8.90;99.90
55213;DHT22;41083;52.932;6.674;2024-03-25T13:07:05;8.90;99.90
55213;DHT22;41083;52.932;6.674;2024-03-25T13:09:31;8.90;99.90
55213;DHT22;41083;52.932;6.674;2024-03-25T13:11:57;8.90;99.90
55213;DHT22;41083;52.932;6.674;2024-03-25T13:14:23;8.90;99.90
55213;DHT22;41083;52.932;6.674;2024-03-25T13:16:49;8.90;99.90
55213;DHT22;41083;52.932;6.674;2024-03-25T13:19:15;8.90;99.90
55213;DHT22;41083;52.932;6.674;2024-03-25T13:21:41;9.00;99.90
55213;DHT22;41083;52.932;6.674;2024-03-25T13:24:06;9.00;99.90
55213;DHT22;41083;52.932;6.674;2024-03-25T13:26:32;9.00;99.90
55213;DHT22;41083;52.932;6.674;2024-03-25T13:28:58;9.00;99.90
55213;DHT22;41083;52.932;6.674;2024-03-25T13:31:24;8.90;99.90
55213;DHT22;41083;52.932;6.674;2024-03-25T13:33:50;9.00;99.90
55213;DHT22;41083;52.932;6.674;2024-03-25T13:36:17;9.00;99.90
55213;DHT22;41083;52.932;6.674;2024-03-25T13:38:43;9.00;99.90
55213;DHT22;41083;52.932;6.674;2024-03-25T13:41:09;9.10;99.90
55213;DHT22;41083;52.932;6.674;2024-03-25T13:43:35;9.00;99.90
55213;DHT22;41083;52.932;6.674;2024-03-25T13:46:01;9.10;99.90
55213;DHT22;41083;52.932;6.674;2024-03-25T13:48:26;9.00;99.90
55213;DHT22;41083;52.932;6.674;2024-03-25T13:50:55;9.00;99.90
55213;DHT22;41083;52.932;6.674;2024-03-25T13:53:21;9.00;99.90
55213;DHT22;41083;52.932;6.674;2024-03-25T13:55:46;9.10;99.90
55213;DHT22;41083;52.932;6.674;2024-03-25T13:58:12;9.10;99.90
55213;DHT22;41083;52.932;6.674;2024-03-25T14:00:38;9.10;99.90
55213;DHT22;41083;52.932;6.674;2024-03-25T14:03:04;9.10;99.90
55213;DHT22;41083;52.932;6.674;2024-03-25T14:05:30;9.10;99.90
55213;DHT22;41083;52.932;6.674;2024-03-25T14:07:55;9.10;99.90
55213;DHT22;41083;52.932;6.674;2024-03-25T14:10:24;9.10;99.90
55213;DHT22;41083;52.932;6.674;2024-03-25T14:12:50;9.20;99.90
55213;DHT22;41083;52.932;6.674;2024-03-25T14:15:15;9.20;99.90
55213;DHT22;41083;52.932;6.674;2024-03-25T14:17:41;9.20;99.90
55213;DHT22;41083;52.932;6.674;2024-03-25T14:20:07;9.20;99.90
55213;DHT22;41083;52.932;6.674;2024-03-25T14:22:34;9.20;99.90
55213;DHT22;41083;52.932;6.674;2024-03-25T14:25:00;9.30;99.90
55213;DHT22;41083;52.932;6.674;2024-03-25T14:27:26;9.30;99.90
55213;DHT22;41083;52.932;6.674;2024-03-25T14:29:52;9.30;99.90
55213;DHT22;41083;52.932;6.674;2024-03-25T14:32:22;9.20;99.90
55213;DHT22;41083;52.932;6.674;2024-03-25T14:34:48;9.30;99.90
55213;DHT22;41083;52.932;6.674;2024-03-25T14:37:14;9.20;99.90
55213;DHT22;41083;52.932;6.674;2024-03-25T14:39:41;9.20;99.90
55213;DHT22;41083;52.932;6.674;2024-03-25T14:42:10;9.20;99.90
55213;DHT22;41083;52.932;6.674;2024-03-25T14:44:36;9.20;99.90
55213;DHT22;41083;52.932;6.674;2024-03-25T14:47:03;9.30;99.90
55213;DHT22;41083;52.932;6.674;2024-03-25T14:49:28;9.30;99.90
55213;DHT22;41083;52.932;6.674;2024-03-25T14:51:54;9.30;99.90
55213;DHT22;41083;52.932;6.674;2024-03-25T14:54:20;9.40;99.90
55213;DHT22;41083;52.932;6.674;2024-03-25T14:56:46;9.40;99.90
55213;DHT22;41083;52.932;6.674;2024-03-25T14:59:12;9.50;99.90
55213;DHT22;41083;52.932;6.674;2024-03-25T15:01:37;9.50;99.90
55213;DHT22;41083;52.932;6.674;2024-03-25T15:04:04;9.60;99.90
55213;DHT22;41083;52.932;6.674;2024-03-25T15:06:30;9.70;99.90
55213;DHT22;41083;52.932;6.674;2024-03-25T15:08:59;9.70;99.90
55213;DHT22;41083;52.932;6.674;2024-03-25T15:11:25;9.80;99.90
55213;DHT22;41083;52.932;6.674;2024-03-25T15:13:52;9.80;99.90
55213;DHT22;41083;52.932;6.674;2024-03-25T15:16:17;9.90;99.90
55213;DHT22;41083;52.932;6.674;2024-03-25T15:18:43;9.80;99.90
55213;DHT22;41083;52.932;6.674;2024-03-25T15:21:09;9.90;99.90
55213;DHT22;41083;52.932;6.674;2024-03-25T15:23:35;9.80;99.90
55213;DHT22;41083;52.932;6.674;2024-03-25T15:26:00;9.90;99.90
55213;DHT22;41083;52.932;6.674;2024-03-25T15:28:26;9.80;99.90
55213;DHT22;41083;52.932;6.674;2024-03-25T15:30:54;9.80;99.90
55213;DHT22;41083;52.932;6.674;2024-03-25T15:33:21;9.70;99.90
55213;DHT22;41083;52.932;6.674;2024-03-25T15:35:48;9.70;99.90
55213;DHT22;41083;52.932;6.674;2024-03-25T15:38:14;9.60;99.90
55213;DHT22;41083;52.932;6.674;2024-03-25T15:40:39;9.60;99.90